sensor_id;sensor_type;location;lat;lon;timestamp;temperature;humidity
51655;DHT22;37732;53.106;7.030;2023-04-03T00:01:07;1.50;99.90
51655;DHT22;37732;53.106;7.030;2023-04-03T00:03:33;1.70;99.90
51655;DHT22;37732;53.106;7.030;2023-04-03T00:06:01;1.50;99.90
51655;DHT22;37732;53.106;7.030;2023-04-03T00:08:26;2.30;99.90
51655;DHT22;37732;53.106;7.030;2023-04-03T00:10:52;1.50;99.90
51655;DHT22;37732;53.106;7.030;2023-04-03T00:13:19;1.40;99.90
51655;DHT22;37732;53.106;7.030;2023-04-03T00:15:44;1.40;99.90
51655;DHT22;37732;53.106;7.030;2023-04-03T00:18:10;1.50;99.90
51655;DHT22;37732;53.106;7.030;2023-04-03T00:20:36;1.40;99.90
51655;DHT22;37732;53.106;7.030;2023-04-03T00:23:02;1.40;99.90
51655;DHT22;37732;53.106;7.030;2023-04-03T00:25:28;1.30;99.90
51655;DHT22;37732;53.106;7.030;2023-04-03T00:27:54;1.40;99.90
51655;DHT22;37732;53.106;7.030;2023-04-03T00:30:21;1.30;99.90
51655;DHT22;37732;53.106;7.030;2023-04-03T00:32:50;1.30;99.90
51655;DHT22;37732;53.106;7.030;2023-04-03T00:35:17;1.30;99.90
51655;DHT22;37732;53.106;7.030;2023-04-03T00:37:44;1.30;99.90
51655;DHT22;37732;53.106;7.030;2023-04-03T00:40:12;1.50;99.90
51655;DHT22;37732;53.106;7.030;2023-04-03T00:42:40;1.20;99.90
51655;DHT22;37732;53.106;7.030;2023-04-03T00:47:41;1.20;99.90
51655;DHT22;37732;53.106;7.030;2023-04-03T00:50:07;1.70;99.90
51655;DHT22;37732;53.106;7.030;2023-04-03T00:52:33;1.20;99.90
51655;DHT22;37732;53.106;7.030;2023-04-03T00:55:04;1.10;99.90
51655;DHT22;37732;53.106;7.030;2023-04-03T00:57:31;1.10;99.90
51655;DHT22;37732;53.106;7.030;2023-04-03T01:00:04;1.10;99.90
51655;DHT22;37732;53.106;7.030;2023-04-03T01:02:31;1.10;99.90
51655;DHT22;37732;53.106;7.030;2023-04-03T01:04:57;2.20;99.90
51655;DHT22;37732;53.106;7.030;2023-04-03T01:07:26;1.10;99.90
51655;DHT22;37732;53.106;7.030;2023-04-03T01:09:57;2.10;99.90
51655;DHT22;37732;53.106;7.030;2023-04-03T01:12:35;1.00;99.90
51655;DHT22;37732;53.106;7.030;2023-04-03T01:15:08;1.00;99.90
51655;DHT22;37732;53.106;7.030;2023-04-03T01:17:50;1.00;99.90
51655;DHT22;37732;53.106;7.030;2023-04-03T01:28:16;0.90;99.90
51655;DHT22;37732;53.106;7.030;2023-04-03T01:33:38;0.80;99.90
51655;DHT22;37732;53.106;7.030;2023-04-03T01:36:05;0.80;99.90
51655;DHT22;37732;53.106;7.030;2023-04-03T01:38:31;0.80;99.90
51655;DHT22;37732;53.106;7.030;2023-04-03T01:40:57;1.80;99.90
51655;DHT22;37732;53.106;7.030;2023-04-03T01:43:22;0.70;99.90
51655;DHT22;37732;53.106;7.030;2023-04-03T01:45:48;1.20;99.90
51655;DHT22;37732;53.106;7.030;2023-04-03T01:48:20;0.60;99.90
51655;DHT22;37732;53.106;7.030;2023-04-03T01:50:45;0.50;99.90
51655;DHT22;37732;53.106;7.030;2023-04-03T01:53:11;0.50;99.90
51655;DHT22;37732;53.106;7.030;2023-04-03T01:55:37;0.50;99.90
51655;DHT22;37732;53.106;7.030;2023-04-03T01:58:03;0.70;99.90
51655;DHT22;37732;53.106;7.030;2023-04-03T02:00:28;0.40;99.90
51655;DHT22;37732;53.106;7.030;2023-04-03T02:02:55;0.30;99.90
51655;DHT22;37732;53.106;7.030;2023-04-03T02:05:20;0.40;99.90
51655;DHT22;37732;53.106;7.030;2023-04-03T02:07:46;0.30;99.90
51655;DHT22;37732;53.106;7.030;2023-04-03T02:10:12;0.30;99.90
51655;DHT22;37732;53.106;7.030;2023-04-03T02:12:38;0.20;99.90
51655;DHT22;37732;53.106;7.030;2023-04-03T02:15:04;0.20;99.90
51655;DHT22;37732;53.106;7.030;2023-04-03T02:17:30;0.20;99.90
51655;DHT22;37732;53.106;7.030;2023-04-03T02:19:56;0.20;99.90
51655;DHT22;37732;53.106;7.030;2023-04-03T02:22:21;0.10;99.90
51655;DHT22;37732;53.106;7.030;2023-04-03T02:24:47;0.10;99.90
51655;DHT22;37732;53.106;7.030;2023-04-03T02:27:13;0.10;99.90
51655;DHT22;37732;53.106;7.030;2023-04-03T02:29:38;0.90;99.90
51655;DHT22;37732;53.106;7.030;2023-04-03T02:32:05;0.00;99.90
51655;DHT22;37732;53.106;7.030;2023-04-03T02:34:32;0.00;99.90
51655;DHT22;37732;53.106;7.030;2023-04-03T02:36:57;0.00;99.90
51655;DHT22;37732;53.106;7.030;2023-04-03T02:39:23;-0.10;99.90
51655;DHT22;37732;53.106;7.030;2023-04-03T02:41:49;-0.10;99.90
51655;DHT22;37732;53.106;7.030;2023-04-03T02:44:14;-0.10;99.90
51655;DHT22;37732;53.106;7.030;2023-04-03T02:46:40;-0.10;99.90
51655;DHT22;37732;53.106;7.030;2023-04-03T02:49:06;-0.10;99.90
51655;DHT22;37732;53.106;7.030;2023-04-03T02:51:32;0.80;99.90
51655;DHT22;37732;53.106;7.030;2023-04-03T02:53:58;0.30;99.90
51655;DHT22;37732;53.106;7.030;2023-04-03T02:56:23;-0.10;99.90
51655;DHT22;37732;53.106;7.030;2023-04-03T02:58:49;-0.10;99.90
51655;DHT22;37732;53.106;7.030;2023-04-03T03:01:15;-0.20;99.90
51655;DHT22;37732;53.106;7.030;2023-04-03T03:03:41;-0.20;99.90
51655;DHT22;37732;53.106;7.030;2023-04-03T03:06:12;-0.20;99.90
51655;DHT22;37732;53.106;7.030;2023-04-03T03:08:38;-0.30;99.90
51655;DHT22;37732;53.106;7.030;2023-04-03T03:11:04;-0.30;99.90
51655;DHT22;37732;53.106;7.030;2023-04-03T03:13:30;-0.30;99.90
51655;DHT22;37732;53.106;7.030;2023-04-03T03:15:56;0.30;99.90
51655;DHT22;37732;53.106;7.030;2023-04-03T03:18:21;0.20;99.90
51655;DHT22;37732;53.106;7.030;2023-04-03T03:20:54;-0.40;99.90
51655;DHT22;37732;53.106;7.030;2023-04-03T03:23:21;-0.40;99.90
51655;DHT22;37732;53.106;7.030;2023-04-03T03:25:46;-0.40;99.90
51655;DHT22;37732;53.106;7.030;2023-04-03T03:28:12;-0.40;99.90
51655;DHT22;37732;53.106;7.030;2023-04-03T03:30:38;-0.40;99.90
51655;DHT22;37732;53.106;7.030;2023-04-03T03:33:03;-0.40;99.90
51655;DHT22;37732;53.106;7.030;2023-04-03T03:35:29;0.80;99.90
51655;DHT22;37732;53.106;7.030;2023-04-03T03:37:55;-0.50;99.90
51655;DHT22;37732;53.106;7.030;2023-04-03T03:40:21;-0.60;99.90
51655;DHT22;37732;53.106;7.030;2023-04-03T03:42:46;-0.60;99.90
51655;DHT22;37732;53.106;7.030;2023-04-03T03:45:12;-0.50;99.90
51655;DHT22;37732;53.106;7.030;2023-04-03T03:47:38;-0.70;99.90
51655;DHT22;37732;53.106;7.030;2023-04-03T03:50:04;-0.70;99.90
51655;DHT22;37732;53.106;7.030;2023-04-03T03:52:30;-0.80;99.90
51655;DHT22;37732;53.106;7.030;2023-04-03T03:54:56;-0.80;99.90
51655;DHT22;37732;53.106;7.030;2023-04-03T03:57:22;-0.80;99.90
51655;DHT22;37732;53.106;7.030;2023-04-03T03:59:47;-0.90;99.90
51655;DHT22;37732;53.106;7.030;2023-04-03T04:02:14;-0.90;99.90
51655;DHT22;37732;53.106;7.030;2023-04-03T04:04:40;-0.90;99.90
51655;DHT22;37732;53.106;7.030;2023-04-03T04:07:06;-1.00;99.90
51655;DHT22;37732;53.106;7.030;2023-04-03T04:09:31;-1.00;99.90
51655;DHT22;37732;53.106;7.030;2023-04-03T04:11:57;0.50;99.90
51655;DHT22;37732;53.106;7.030;2023-04-03T04:14:23;-1.00;99.90
51655;DHT22;37732;53.106;7.030;2023-04-03T04:16:49;-1.10;99.90
51655;DHT22;37732;53.106;7.030;2023-04-03T04:19:15;0.00;99.90
51655;DHT22;37732;53.106;7.030;2023-04-03T04:21:41;0.10;99.90
51655;DHT22;37732;53.106;7.030;2023-04-03T04:24:07;0.00;99.90
51655;DHT22;37732;53.106;7.030;2023-04-03T04:26:34;-1.20;99.90
51655;DHT22;37732;53.106;7.030;2023-04-03T04:29:00;-1.20;99.90
51655;DHT22;37732;53.106;7.030;2023-04-03T04:31:26;-0.10;99.90
51655;DHT22;37732;53.106;7.030;2023-04-03T04:33:52;-1.20;99.90
51655;DHT22;37732;53.106;7.030;2023-04-03T04:36:17;-1.20;99.90
51655;DHT22;37732;53.106;7.030;2023-04-03T04:38:43;0.00;99.90
51655;DHT22;37732;53.106;7.030;2023-04-03T04:41:10;-1.10;99.90
51655;DHT22;37732;53.106;7.030;2023-04-03T04:43:35;-1.10;99.90
51655;DHT22;37732;53.106;7.030;2023-04-03T04:46:06;-1.10;99.90
51655;DHT22;37732;53.106;7.030;2023-04-03T04:48:33;-0.80;99.90
51655;DHT22;37732;53.106;7.030;2023-04-03T04:50:59;-1.10;99.90
51655;DHT22;37732;53.106;7.030;2023-04-03T04:53:25;-1.20;99.90
51655;DHT22;37732;53.106;7.030;2023-04-03T04:55:52;-1.20;99.90
51655;DHT22;37732;53.106;7.030;2023-04-03T04:58:18;-0.50;99.90
51655;DHT22;37732;53.106;7.030;2023-04-03T05:00:44;-1.20;99.90
51655;DHT22;37732;53.106;7.030;2023-04-03T05:03:10;-0.20;99.90
51655;DHT22;37732;53.106;7.030;2023-04-03T05:05:36;-1.10;99.90
51655;DHT22;37732;53.106;7.030;2023-04-03T05:08:02;-1.10;99.90
51655;DHT22;37732;53.106;7.030;2023-04-03T05:10:28;-1.10;99.90
51655;DHT22;37732;53.106;7.030;2023-04-03T05:12:54;-1.00;99.90
51655;DHT22;37732;53.106;7.030;2023-04-03T05:15:20;-1.00;99.90
51655;DHT22;37732;53.106;7.030;2023-04-03T05:17:46;-1.00;99.90
51655;DHT22;37732;53.106;7.030;2023-04-03T05:20:12;-0.30;99.90
51655;DHT22;37732;53.106;7.030;2023-04-03T05:22:38;-1.00;99.90
51655;DHT22;37732;53.106;7.030;2023-04-03T05:25:04;-1.00;99.90
51655;DHT22;37732;53.106;7.030;2023-04-03T05:27:31;-1.00;99.90
51655;DHT22;37732;53.106;7.030;2023-04-03T05:29:56;-1.00;99.90
51655;DHT22;37732;53.106;7.030;2023-04-03T05:32:23;-1.10;99.90
51655;DHT22;37732;53.106;7.030;2023-04-03T05:34:50;-1.10;99.90
51655;DHT22;37732;53.106;7.030;2023-04-03T05:37:16;-1.10;99.90
51655;DHT22;37732;53.106;7.030;2023-04-03T05:39:42;-1.10;99.90
51655;DHT22;37732;53.106;7.030;2023-04-03T05:42:07;-1.10;99.90
51655;DHT22;37732;53.106;7.030;2023-04-03T05:44:33;-1.10;99.90
51655;DHT22;37732;53.106;7.030;2023-04-03T05:46:59;-0.40;99.90
51655;DHT22;37732;53.106;7.030;2023-04-03T05:49:25;-0.50;99.90
51655;DHT22;37732;53.106;7.030;2023-04-03T05:51:51;-1.00;99.90
51655;DHT22;37732;53.106;7.030;2023-04-03T05:54:23;-0.90;99.90
51655;DHT22;37732;53.106;7.030;2023-04-03T05:56:50;-0.90;99.90
51655;DHT22;37732;53.106;7.030;2023-04-03T05:59:17;-0.80;99.90
51655;DHT22;37732;53.106;7.030;2023-04-03T06:01:43;-0.70;99.90
51655;DHT22;37732;53.106;7.030;2023-04-03T06:04:08;-0.60;99.90
51655;DHT22;37732;53.106;7.030;2023-04-03T06:09:18;-0.30;99.90
51655;DHT22;37732;53.106;7.030;2023-04-03T06:11:44;0.90;99.90
51655;DHT22;37732;53.106;7.030;2023-04-03T06:14:10;0.30;99.90
51655;DHT22;37732;53.106;7.030;2023-04-03T06:16:36;0.90;99.90
51655;DHT22;37732;53.106;7.030;2023-04-03T06:19:02;0.70;99.90
51655;DHT22;37732;53.106;7.030;2023-04-03T06:21:30;0.70;99.90
51655;DHT22;37732;53.106;7.030;2023-04-03T06:23:56;1.90;99.90
51655;DHT22;37732;53.106;7.030;2023-04-03T06:26:21;1.20;99.90
51655;DHT22;37732;53.106;7.030;2023-04-03T06:28:47;1.50;99.90
51655;DHT22;37732;53.106;7.030;2023-04-03T06:31:13;1.70;99.90
51655;DHT22;37732;53.106;7.030;2023-04-03T06:33:39;1.80;99.90
51655;DHT22;37732;53.106;7.030;2023-04-03T06:36:05;2.00;99.90
51655;DHT22;37732;53.106;7.030;2023-04-03T06:38:33;2.50;99.90
51655;DHT22;37732;53.106;7.030;2023-04-03T06:40:59;2.30;99.90
51655;DHT22;37732;53.106;7.030;2023-04-03T06:43:25;2.60;99.90
51655;DHT22;37732;53.106;7.030;2023-04-03T06:45:51;2.80;99.90
51655;DHT22;37732;53.106;7.030;2023-04-03T06:48:17;3.00;99.90
51655;DHT22;37732;53.106;7.030;2023-04-03T06:50:43;3.30;99.90
51655;DHT22;37732;53.106;7.030;2023-04-03T06:53:09;3.50;99.90
51655;DHT22;37732;53.106;7.030;2023-04-03T06:55:35;3.80;99.90
51655;DHT22;37732;53.106;7.030;2023-04-03T06:58:01;3.70;99.90
51655;DHT22;37732;53.106;7.030;2023-04-03T07:00:29;3.90;99.90
51655;DHT22;37732;53.106;7.030;2023-04-03T07:02:55;4.10;99.90
51655;DHT22;37732;53.106;7.030;2023-04-03T07:05:23;4.40;99.90
51655;DHT22;37732;53.106;7.030;2023-04-03T07:07:49;4.60;99.90
51655;DHT22;37732;53.106;7.030;2023-04-03T07:10:15;4.80;99.90
51655;DHT22;37732;53.106;7.030;2023-04-03T07:12:42;5.00;99.90
51655;DHT22;37732;53.106;7.030;2023-04-03T07:15:08;5.20;99.90
51655;DHT22;37732;53.106;7.030;2023-04-03T07:17:36;5.40;99.90
51655;DHT22;37732;53.106;7.030;2023-04-03T07:20:03;5.60;99.90
51655;DHT22;37732;53.106;7.030;2023-04-03T07:22:30;5.60;99.90
51655;DHT22;37732;53.106;7.030;2023-04-03T07:24:55;5.60;99.90
51655;DHT22;37732;53.106;7.030;2023-04-03T07:27:21;5.70;99.90
51655;DHT22;37732;53.106;7.030;2023-04-03T07:29:46;5.60;99.90
51655;DHT22;37732;53.106;7.030;2023-04-03T07:32:14;5.80;99.90
51655;DHT22;37732;53.106;7.030;2023-04-03T07:34:41;5.80;99.90
51655;DHT22;37732;53.106;7.030;2023-04-03T07:37:07;6.20;99.90
51655;DHT22;37732;53.106;7.030;2023-04-03T07:39:34;6.00;99.90
51655;DHT22;37732;53.106;7.030;2023-04-03T07:42:00;6.20;99.90
51655;DHT22;37732;53.106;7.030;2023-04-03T07:44:28;6.10;99.90
51655;DHT22;37732;53.106;7.030;2023-04-03T07:46:54;6.20;99.90
51655;DHT22;37732;53.106;7.030;2023-04-03T07:49:22;6.20;99.90
51655;DHT22;37732;53.106;7.030;2023-04-03T07:51:49;6.40;99.90
51655;DHT22;37732;53.106;7.030;2023-04-03T07:54:15;6.50;99.90
51655;DHT22;37732;53.106;7.030;2023-04-03T07:56:41;6.40;99.90
51655;DHT22;37732;53.106;7.030;2023-04-03T07:59:09;6.50;99.90
51655;DHT22;37732;53.106;7.030;2023-04-03T08:01:36;6.60;99.90
51655;DHT22;37732;53.106;7.030;2023-04-03T08:04:01;6.70;99.90
51655;DHT22;37732;53.106;7.030;2023-04-03T08:06:27;6.70;99.90
51655;DHT22;37732;53.106;7.030;2023-04-03T08:08:55;6.70;99.90
51655;DHT22;37732;53.106;7.030;2023-04-03T08:11:21;6.80;99.90
51655;DHT22;37732;53.106;7.030;2023-04-03T08:13:49;6.80;99.90
51655;DHT22;37732;53.106;7.030;2023-04-03T08:16:20;6.80;99.90
51655;DHT22;37732;53.106;7.030;2023-04-03T08:18:47;6.90;99.90
51655;DHT22;37732;53.106;7.030;2023-04-03T08:21:13;7.00;99.90
51655;DHT22;37732;53.106;7.030;2023-04-03T08:23:40;7.10;99.90
51655;DHT22;37732;53.106;7.030;2023-04-03T08:26:12;7.00;99.90
51655;DHT22;37732;53.106;7.030;2023-04-03T08:28:38;6.90;99.90
51655;DHT22;37732;53.106;7.030;2023-04-03T08:31:05;6.90;99.90
51655;DHT22;37732;53.106;7.030;2023-04-03T08:33:32;6.90;99.90
51655;DHT22;37732;53.106;7.030;2023-04-03T08:35:57;7.00;99.90
51655;DHT22;37732;53.106;7.030;2023-04-03T08:38:23;7.10;99.90
51655;DHT22;37732;53.106;7.030;2023-04-03T08:41:04;7.10;99.90
51655;DHT22;37732;53.106;7.030;2023-04-03T08:43:34;7.10;99.90
51655;DHT22;37732;53.106;7.030;2023-04-03T08:46:05;7.00;99.90
51655;DHT22;37732;53.106;7.030;2023-04-03T08:48:35;7.20;99.90
51655;DHT22;37732;53.106;7.030;2023-04-03T08:51:17;7.30;99.90
51655;DHT22;37732;53.106;7.030;2023-04-03T08:53:59;7.40;99.90
51655;DHT22;37732;53.106;7.030;2023-04-03T08:56:26;7.60;99.90
51655;DHT22;37732;53.106;7.030;2023-04-03T08:59:01;7.60;99.90
51655;DHT22;37732;53.106;7.030;2023-04-03T09:01:39;7.70;99.90
51655;DHT22;37732;53.106;7.030;2023-04-03T09:04:16;7.70;99.90
51655;DHT22;37732;53.106;7.030;2023-04-03T09:06:50;7.90;99.90
51655;DHT22;37732;53.106;7.030;2023-04-03T09:12:18;8.00;98.20
51655;DHT22;37732;53.106;7.030;2023-04-03T09:19:54;8.30;99.40
51655;DHT22;37732;53.106;7.030;2023-04-03T09:22:28;8.30;97.30
51655;DHT22;37732;53.106;7.030;2023-04-03T09:27:41;8.20;95.10
51655;DHT22;37732;53.106;7.030;2023-04-03T09:30:16;8.50;96.80
51655;DHT22;37732;53.106;7.030;2023-04-03T09:32:44;8.60;97.20
51655;DHT22;37732;53.106;7.030;2023-04-03T09:37:42;8.80;95.60
51655;DHT22;37732;53.106;7.030;2023-04-03T09:42:58;8.90;86.10
51655;DHT22;37732;53.106;7.030;2023-04-03T09:45:29;8.80;90.70
51655;DHT22;37732;53.106;7.030;2023-04-03T09:48:15;8.80;91.20
51655;DHT22;37732;53.106;7.030;2023-04-03T09:53:30;9.00;90.80
51655;DHT22;37732;53.106;7.030;2023-04-03T09:55:58;9.00;90.90
51655;DHT22;37732;53.106;7.030;2023-04-03T10:01:02;9.20;87.50
51655;DHT22;37732;53.106;7.030;2023-04-03T10:05:53;9.20;88.10
51655;DHT22;37732;53.106;7.030;2023-04-03T10:08:26;9.30;87.90
51655;DHT22;37732;53.106;7.030;2023-04-03T10:13:32;9.40;83.40
51655;DHT22;37732;53.106;7.030;2023-04-03T10:16:06;9.50;84.80
51655;DHT22;37732;53.106;7.030;2023-04-03T10:18:45;9.50;82.50
51655;DHT22;37732;53.106;7.030;2023-04-03T10:24:18;9.90;82.40
51655;DHT22;37732;53.106;7.030;2023-04-03T10:29:41;10.10;80.70
51655;DHT22;37732;53.106;7.030;2023-04-03T10:35:03;10.30;80.30
51655;DHT22;37732;53.106;7.030;2023-04-03T10:40:30;10.40;75.20
51655;DHT22;37732;53.106;7.030;2023-04-03T10:43:07;10.30;70.20
51655;DHT22;37732;53.106;7.030;2023-04-03T10:56:26;10.30;67.50
51655;DHT22;37732;53.106;7.030;2023-04-03T11:04:51;10.40;61.80
51655;DHT22;37732;53.106;7.030;2023-04-03T11:07:24;10.50;63.10
51655;DHT22;37732;53.106;7.030;2023-04-03T11:10:00;10.50;63.10
51655;DHT22;37732;53.106;7.030;2023-04-03T11:14:59;10.50;60.00
51655;DHT22;37732;53.106;7.030;2023-04-03T11:17:33;10.50;58.80
51655;DHT22;37732;53.106;7.030;2023-04-03T11:20:08;10.40;59.40
51655;DHT22;37732;53.106;7.030;2023-04-03T11:22:43;10.30;58.70
51655;DHT22;37732;53.106;7.030;2023-04-03T11:35:49;10.20;58.80
51655;DHT22;37732;53.106;7.030;2023-04-03T11:38:27;10.30;58.90
51655;DHT22;37732;53.106;7.030;2023-04-03T11:40:57;10.50;58.60
51655;DHT22;37732;53.106;7.030;2023-04-03T11:43:29;10.60;58.80
51655;DHT22;37732;53.106;7.030;2023-04-03T11:46:01;10.60;58.80
51655;DHT22;37732;53.106;7.030;2023-04-03T11:50:55;10.60;58.00
51655;DHT22;37732;53.106;7.030;2023-04-03T11:53:39;10.60;58.10
51655;DHT22;37732;53.106;7.030;2023-04-03T11:56:35;10.80;59.10
51655;DHT22;37732;53.106;7.030;2023-04-03T12:01:54;11.00;59.00
51655;DHT22;37732;53.106;7.030;2023-04-03T12:04:21;11.00;59.60
51655;DHT22;37732;53.106;7.030;2023-04-03T12:11:58;11.10;58.10
51655;DHT22;37732;53.106;7.030;2023-04-03T12:14:25;11.10;59.40
51655;DHT22;37732;53.106;7.030;2023-04-03T12:16:56;11.20;58.10
51655;DHT22;37732;53.106;7.030;2023-04-03T12:19:38;11.30;58.40
51655;DHT22;37732;53.106;7.030;2023-04-03T12:22:13;11.40;57.40
51655;DHT22;37732;53.106;7.030;2023-04-03T12:24:42;11.50;58.70
51655;DHT22;37732;53.106;7.030;2023-04-03T12:27:22;11.60;58.90
51655;DHT22;37732;53.106;7.030;2023-04-03T12:35:30;11.60;57.70
51655;DHT22;37732;53.106;7.030;2023-04-03T12:38:25;11.60;56.50
51655;DHT22;37732;53.106;7.030;2023-04-03T12:47:22;11.60;57.40
51655;DHT22;37732;53.106;7.030;2023-04-03T12:49:50;11.60;57.50
51655;DHT22;37732;53.106;7.030;2023-04-03T12:52:44;11.60;58.90
51655;DHT22;37732;53.106;7.030;2023-04-03T12:55:16;11.60;56.00
51655;DHT22;37732;53.106;7.030;2023-04-03T12:57:41;11.50;55.60
51655;DHT22;37732;53.106;7.030;2023-04-03T13:00:32;11.50;57.10
51655;DHT22;37732;53.106;7.030;2023-04-03T13:03:01;11.60;55.80
51655;DHT22;37732;53.106;7.030;2023-04-03T13:05:27;11.60;55.40
51655;DHT22;37732;53.106;7.030;2023-04-03T13:08:03;11.60;56.20
51655;DHT22;37732;53.106;7.030;2023-04-03T13:10:30;11.70;54.00
51655;DHT22;37732;53.106;7.030;2023-04-03T13:13:07;11.80;55.50
51655;DHT22;37732;53.106;7.030;2023-04-03T13:15:43;11.80;54.90
51655;DHT22;37732;53.106;7.030;2023-04-03T13:20:51;12.10;54.90
51655;DHT22;37732;53.106;7.030;2023-04-03T13:23:18;12.00;55.70
51655;DHT22;37732;53.106;7.030;2023-04-03T13:25:47;12.00;55.00
51655;DHT22;37732;53.106;7.030;2023-04-03T13:28:17;11.90;55.10
51655;DHT22;37732;53.106;7.030;2023-04-03T13:31:06;11.90;55.30
51655;DHT22;37732;53.106;7.030;2023-04-03T13:33:34;12.00;53.70
51655;DHT22;37732;53.106;7.030;2023-04-03T13:36:31;11.90;54.40
51655;DHT22;37732;53.106;7.030;2023-04-03T13:39:22;11.70;53.30
51655;DHT22;37732;53.106;7.030;2023-04-03T13:41:52;11.60;53.80
51655;DHT22;37732;53.106;7.030;2023-04-03T13:46:54;11.70;54.30
51655;DHT22;37732;53.106;7.030;2023-04-03T13:49:36;11.80;54.90
51655;DHT22;37732;53.106;7.030;2023-04-03T13:54:54;11.90;55.50
51655;DHT22;37732;53.106;7.030;2023-04-03T13:57:20;12.10;55.30
51655;DHT22;37732;53.106;7.030;2023-04-03T13:59:46;12.20;55.10
51655;DHT22;37732;53.106;7.030;2023-04-03T14:02:17;12.10;55.80
51655;DHT22;37732;53.106;7.030;2023-04-03T14:04:45;12.20;56.30
51655;DHT22;37732;53.106;7.030;2023-04-03T14:07:13;12.20;55.90
51655;DHT22;37732;53.106;7.030;2023-04-03T14:09:39;12.20;55.20
51655;DHT22;37732;53.106;7.030;2023-04-03T14:12:11;12.20;56.10
51655;DHT22;37732;53.106;7.030;2023-04-03T14:14:37;12.20;55.20
51655;DHT22;37732;53.106;7.030;2023-04-03T14:17:17;12.00;54.30
51655;DHT22;37732;53.106;7.030;2023-04-03T14:19:44;12.00;54.30
51655;DHT22;37732;53.106;7.030;2023-04-03T14:22:25;11.90;55.70
51655;DHT22;37732;53.106;7.030;2023-04-03T14:24:51;12.00;54.70
51655;DHT22;37732;53.106;7.030;2023-04-03T14:27:22;11.80;54.80
51655;DHT22;37732;53.106;7.030;2023-04-03T14:29:50;11.70;54.80
51655;DHT22;37732;53.106;7.030;2023-04-03T14:32:19;11.50;54.70
51655;DHT22;37732;53.106;7.030;2023-04-03T14:34:45;11.50;55.50
51655;DHT22;37732;53.106;7.030;2023-04-03T14:37:14;11.40;55.10
51655;DHT22;37732;53.106;7.030;2023-04-03T14:39:41;11.30;53.40
51655;DHT22;37732;53.106;7.030;2023-04-03T14:42:16;11.30;53.70
51655;DHT22;37732;53.106;7.030;2023-04-03T14:44:42;11.20;53.40
51655;DHT22;37732;53.106;7.030;2023-04-03T14:47:17;11.10;54.20
51655;DHT22;37732;53.106;7.030;2023-04-03T14:49:43;11.00;53.60
51655;DHT22;37732;53.106;7.030;2023-04-03T14:52:31;11.00;54.50
51655;DHT22;37732;53.106;7.030;2023-04-03T14:54:57;11.10;53.50
51655;DHT22;37732;53.106;7.030;2023-04-03T14:57:28;11.10;54.60
51655;DHT22;37732;53.106;7.030;2023-04-03T14:59:54;11.20;55.20
51655;DHT22;37732;53.106;7.030;2023-04-03T15:02:36;11.10;55.00
51655;DHT22;37732;53.106;7.030;2023-04-03T15:05:04;11.10;55.00
51655;DHT22;37732;53.106;7.030;2023-04-03T15:07:33;11.20;55.50
51655;DHT22;37732;53.106;7.030;2023-04-03T15:10:05;11.30;54.60
51655;DHT22;37732;53.106;7.030;2023-04-03T15:12:35;11.40;54.80
51655;DHT22;37732;53.106;7.030;2023-04-03T15:15:00;11.40;54.70
51655;DHT22;37732;53.106;7.030;2023-04-03T15:17:26;11.40;54.20
51655;DHT22;37732;53.106;7.030;2023-04-03T15:19:52;11.40;54.60
51655;DHT22;37732;53.106;7.030;2023-04-03T15:22:19;11.40;54.60
51655;DHT22;37732;53.106;7.030;2023-04-03T15:24:45;11.30;54.50
51655;DHT22;37732;53.106;7.030;2023-04-03T15:27:12;11.40;54.60
51655;DHT22;37732;53.106;7.030;2023-04-03T15:29:39;11.20;54.00
51655;DHT22;37732;53.106;7.030;2023-04-03T15:32:07;11.10;54.90
51655;DHT22;37732;53.106;7.030;2023-04-03T15:34:34;11.00;55.20
51655;DHT22;37732;53.106;7.030;2023-04-03T15:37:00;11.00;55.40
51655;DHT22;37732;53.106;7.030;2023-04-03T15:39:26;11.00;55.20
51655;DHT22;37732;53.106;7.030;2023-04-03T15:41:52;11.10;55.50
51655;DHT22;37732;53.106;7.030;2023-04-03T15:44:20;11.10;55.90
51655;DHT22;37732;53.106;7.030;2023-04-03T15:46:47;11.00;55.60
51655;DHT22;37732;53.106;7.030;2023-04-03T15:49:14;10.90;55.70
51655;DHT22;37732;53.106;7.030;2023-04-03T15:51:40;10.80;55.60
51655;DHT22;37732;53.106;7.030;2023-04-03T15:54:06;10.60;55.30
51655;DHT22;37732;53.106;7.030;2023-04-03T15:56:32;10.50;55.70
51655;DHT22;37732;53.106;7.030;2023-04-03T15:58:58;10.40;55.00
51655;DHT22;37732;53.106;7.030;2023-04-03T16:01:23;10.40;54.50
51655;DHT22;37732;53.106;7.030;2023-04-03T16:03:49;10.30;54.80
51655;DHT22;37732;53.106;7.030;2023-04-03T16:06:17;10.20;54.50
51655;DHT22;37732;53.106;7.030;2023-04-03T16:08:45;10.20;55.30
51655;DHT22;37732;53.106;7.030;2023-04-03T16:11:11;10.00;55.10
51655;DHT22;37732;53.106;7.030;2023-04-03T16:13:37;9.90;56.60
51655;DHT22;37732;53.106;7.030;2023-04-03T16:16:04;9.80;56.90
51655;DHT22;37732;53.106;7.030;2023-04-03T16:18:31;9.70;58.40
51655;DHT22;37732;53.106;7.030;2023-04-03T16:20:57;9.70;58.80
51655;DHT22;37732;53.106;7.030;2023-04-03T16:23:23;9.60;58.90
51655;DHT22;37732;53.106;7.030;2023-04-03T16:25:49;9.40;58.80
51655;DHT22;37732;53.106;7.030;2023-04-03T16:28:16;9.30;59.50
51655;DHT22;37732;53.106;7.030;2023-04-03T16:30:44;9.30;60.60
51655;DHT22;37732;53.106;7.030;2023-04-03T16:33:12;9.20;60.20
51655;DHT22;37732;53.106;7.030;2023-04-03T16:35:38;9.20;60.70
51655;DHT22;37732;53.106;7.030;2023-04-03T16:38:04;9.20;59.90
51655;DHT22;37732;53.106;7.030;2023-04-03T16:40:30;9.10;60.00
51655;DHT22;37732;53.106;7.030;2023-04-03T16:42:55;9.10;60.50
51655;DHT22;37732;53.106;7.030;2023-04-03T16:45:21;8.90;60.80
51655;DHT22;37732;53.106;7.030;2023-04-03T16:47:47;8.80;61.00
51655;DHT22;37732;53.106;7.030;2023-04-03T16:50:13;8.70;61.60
51655;DHT22;37732;53.106;7.030;2023-04-03T16:52:38;8.60;62.20
51655;DHT22;37732;53.106;7.030;2023-04-03T16:55:04;8.50;63.30
51655;DHT22;37732;53.106;7.030;2023-04-03T16:57:30;8.40;63.40
51655;DHT22;37732;53.106;7.030;2023-04-03T16:59:56;8.40;64.90
51655;DHT22;37732;53.106;7.030;2023-04-03T17:02:23;8.30;66.00
51655;DHT22;37732;53.106;7.030;2023-04-03T17:04:53;8.30;67.30
51655;DHT22;37732;53.106;7.030;2023-04-03T17:07:20;8.20;69.60
51655;DHT22;37732;53.106;7.030;2023-04-03T17:09:47;8.10;69.60
51655;DHT22;37732;53.106;7.030;2023-04-03T17:12:13;8.00;68.80
51655;DHT22;37732;53.106;7.030;2023-04-03T17:14:39;8.00;69.60
51655;DHT22;37732;53.106;7.030;2023-04-03T17:17:04;7.90;70.40
51655;DHT22;37732;53.106;7.030;2023-04-03T17:19:30;7.80;71.20
51655;DHT22;37732;53.106;7.030;2023-04-03T17:21:57;7.70;73.70
51655;DHT22;37732;53.106;7.030;2023-04-03T17:24:23;7.60;75.20
51655;DHT22;37732;53.106;7.030;2023-04-03T17:26:49;7.50;76.20
51655;DHT22;37732;53.106;7.030;2023-04-03T17:29:15;7.40;77.10
51655;DHT22;37732;53.106;7.030;2023-04-03T17:31:40;7.30;76.80
51655;DHT22;37732;53.106;7.030;2023-04-03T17:34:06;7.20;78.30
51655;DHT22;37732;53.106;7.030;2023-04-03T17:36:33;7.10;79.40
51655;DHT22;37732;53.106;7.030;2023-04-03T17:38:59;7.00;82.00